Flight Track Log - Related Links

Times and Time Zones

All times are in EDT time to prevent confusion due to time zone crossing. See the UAL906 flight status page for this flight to view local times or setup timezone preferences in your user account.

Time Position Orientation Groundspeed Altitude Reporting Facility
EDT Latitude Longitude Course Direction KTS MPH feet Rate Location/Type
Thu 07:00:39 PM 41.9990 -87.9420 319° Northwest 184 212 1,400  Level FlightAware ADS-B
Thu 07:01:09 PM 42.0250 -87.9290 20° North 225 259 2,100 1,745 Climbing FlightAware ADS-B
Thu 07:01:34 PM 42.0440 -87.9050 43° Northeast 236 272 3,000 2,182 Climbing FlightAware ADS-B
Thu 07:02:04 PM 42.0710 -87.8720 42° Northeast 262 302 4,100 2,400 Climbing FlightAware ADS-B
Thu 07:02:34 PM 42.0950 -87.8370 47° Northeast 271 312 5,400 2,836 Climbing FlightAware ADS-B
Thu 07:02:59 PM 42.1080 -87.7950 67° East 279 321 6,700 3,055 Climbing FlightAware ADS-B
Thu 07:03:29 PM 42.1200 -87.7420 73° East 284 327 8,200 2,618 Climbing FlightAware ADS-B
Thu 07:03:54 PM 42.1290 -87.7020 73° East 292 336 9,100 2,314 Climbing FlightAware ADS-B
Thu 07:04:39 PM 42.1490 -87.6200 72° East 308 354 10,900 2,400 Climbing FlightAware ADS-B
Thu 07:05:19 PM 42.1670 -87.5480 71° East 317 365 12,500 1,920 Climbing FlightAware ADS-B
Thu 07:05:54 PM 42.1820 -87.4800 73° East 345 397 13,300 1,341 Climbing FlightAware ADS-B
Thu 07:06:44 PM 42.2070 -87.3710 73° East 386 444 14,400 1,533 Climbing FlightAware ADS-B
Thu 07:07:24 PM 42.2300 -87.2730 72° East 409 471 15,600 1,976 Climbing FlightAware ADS-B
Thu 07:08:09 PM 42.2550 -87.1630 73° East 420 483 17,200 2,118 Climbing FlightAware ADS-B
Thu 07:08:49 PM 42.2750 -87.0600 75° East 436 502 18,600 2,025 Climbing FlightAware ADS-B
Thu 07:09:29 PM 42.2820 -86.9480 85° East 448 516 19,900 1,835 Climbing FlightAware ADS-B
Thu 07:10:14 PM 42.2860 -86.8250 87° East 457 526 21,200 1,835 Climbing FlightAware ADS-B
Thu 07:10:54 PM 42.2910 -86.7100 87° East 464 534 22,500 1,765 Climbing FlightAware ADS-B
Thu 07:11:39 PM 42.2960 -86.5750 87° East 472 543 23,700 1,500 Climbing FlightAware ADS-B
Thu 07:12:14 PM 42.3000 -86.4770 87° East 478 550 24,500 1,575 Climbing FlightAware ADS-B
Thu 07:12:59 PM 42.3050 -86.3380 87° East 483 556 25,800 1,467 Climbing FlightAware ADS-B
Thu 07:13:44 PM 42.3090 -86.1960 88° East 493 567 26,700 1,271 Climbing FlightAware ADS-B
Thu 07:14:24 PM 42.3120 -86.0780 88° East 499 574 27,600 1,725 Climbing FlightAware ADS-B
Thu 07:15:04 PM 42.3120 -85.9500 90° East 494 568 29,000 1,694 Climbing FlightAware ADS-B
Thu 07:15:49 PM 42.3090 -85.8130 92° East 495 570 30,000 1,333 Climbing FlightAware ADS-B
Thu 07:16:34 PM 42.3070 -85.6700 91° East 495 570 31,000 1,271 Climbing FlightAware ADS-B
Thu 07:17:14 PM 42.3060 -85.5480 91° East 497 572 31,800 1,275 Climbing FlightAware ADS-B
Thu 07:17:54 PM 42.3040 -85.4250 91° East 495 570 32,700 847 Climbing FlightAware ADS-B
Thu 07:18:39 PM 42.3050 -85.2880 89° East 487 560 33,000 300 Climbing FlightAware ADS-B
Thu 07:18:54 PM 42.3130 -85.2470 75° East 466 536 33,000  Level FlightAware ADS-B
Thu 07:19:29 PM 42.3530 -85.1610 58° Northeast 459 528 33,000  Level FlightAware ADS-B
Thu 07:20:29 PM 42.4250 -85.0200 55° Northeast 458 527 33,000  Level FlightAware ADS-B
Thu 07:21:14 PM 42.4780 -84.9160 55° Northeast 461 531 33,000  Level FlightAware ADS-B
Thu 07:21:54 PM 42.5280 -84.8180 55° Northeast 462 532 33,000  Level FlightAware ADS-B
Thu 07:22:34 PM 42.5770 -84.7200 56° Northeast 464 534 33,000  Level FlightAware ADS-B
Thu 07:23:19 PM 42.6310 -84.6150 55° Northeast 461 531 33,000  Level FlightAware ADS-B
Thu 07:23:59 PM 42.6790 -84.5200 55° Northeast 462 532 33,000  Level FlightAware ADS-B
Thu 07:24:44 PM 42.7360 -84.4090 55° Northeast 463 533 33,000  Level FlightAware ADS-B
Thu 07:25:24 PM 42.7820 -84.3170 56° Northeast 464 534 33,000  Level FlightAware ADS-B
Thu 07:26:04 PM 42.8310 -84.2190 56° Northeast 465 535 33,000  Level FlightAware ADS-B
Thu 07:26:49 PM 42.8850 -84.1090 56° Northeast 465 535 33,000  Level FlightAware ADS-B
Thu 07:27:29 PM 42.9310 -84.0120 57° Northeast 465 535 33,000  Level FlightAware ADS-B
Thu 07:28:14 PM 42.9850 -83.9000 57° Northeast 466 536 33,000  Level FlightAware ADS-B
Thu 07:28:54 PM 43.0330 -83.7990 57° Northeast 465 535 33,000  Level FlightAware ADS-B
Thu 07:29:34 PM 43.0790 -83.7020 57° Northeast 464 534 33,000  Level FlightAware ADS-B
Thu 07:30:14 PM 43.1260 -83.6050 56° Northeast 463 533 33,000  Level FlightAware ADS-B
Thu 07:30:59 PM 43.1760 -83.4990 57° Northeast 461 531 33,000  Level FlightAware ADS-B
Thu 07:31:44 PM 43.2310 -83.3830 57° Northeast 459 528 33,000  Level FlightAware ADS-B
Thu 07:32:24 PM 43.2760 -83.2860 57° Northeast 457 526 33,000  Level FlightAware ADS-B
Thu 07:33:04 PM 43.3190 -83.1940 57° Northeast 457 526 33,000  Level FlightAware ADS-B
Thu 07:33:49 PM 43.3730 -83.0790 57° Northeast 458 527 33,000  Level FlightAware ADS-B
Thu 07:34:29 PM 43.4150 -82.9900 57° Northeast 457 526 33,000  Level FlightAware ADS-B
Thu 07:35:14 PM 43.4590 -82.8940 58° Northeast 458 527 33,000  Level FlightAware ADS-B
Thu 07:35:44 PM 43.4990 -82.8080 57° Northeast 460 529 33,000  Level FlightAware ADS-B
Thu 07:36:34 PM 43.5510 -82.6930 58° Northeast 463 533 33,000  Level FlightAware ADS-B
Thu 07:37:14 PM 43.6000 -82.5860 58° Northeast 465 535 33,000  Level FlightAware ADS-B
Thu 07:37:59 PM 43.6460 -82.4850 58° Northeast 467 537 33,000  Level FlightAware ADS-B
Thu 07:38:39 PM 43.7030 -82.3570 58° Northeast 470 541 33,000  Level FlightAware ADS-B
Thu 07:39:24 PM 43.7560 -82.2400 58° Northeast 472 543 33,000  Level FlightAware ADS-B
Thu 07:40:04 PM 43.7930 -82.1570 58° Northeast 473 544 33,000  Level FlightAware ADS-B
Thu 07:40:49 PM 43.8500 -82.0300 58° Northeast 475 547 33,000  Level FlightAware ADS-B
Thu 07:41:29 PM 43.8940 -81.9310 58° Northeast 477 549 33,000  Level FlightAware ADS-B
Thu 07:42:14 PM 43.9470 -81.8100 59° Northeast 478 550 33,000  Level FlightAware ADS-B
Thu 07:42:54 PM 43.9940 -81.7030 59° Northeast 479 551 33,000  Level FlightAware ADS-B
Thu 07:43:34 PM 44.0390 -81.6000 59° Northeast 481 554 33,000  Level FlightAware ADS-B
Thu 07:44:19 PM 44.0910 -81.4820 58° Northeast 482 555 33,000  Level FlightAware ADS-B
Thu 07:44:59 PM 44.1360 -81.3780 59° Northeast 482 555 33,000  Level FlightAware ADS-B
Thu 07:45:44 PM 44.1880 -81.2580 59° Northeast 483 556 33,000  Level FlightAware ADS-B
Thu 07:46:24 PM 44.2350 -81.1500 59° Northeast 482 555 33,000  Level FlightAware ADS-B
Thu 07:47:04 PM 44.2810 -81.0430 59° Northeast 482 555 33,000  Level FlightAware ADS-B
Thu 07:47:49 PM 44.3330 -80.9210 59° Northeast 482 555 33,000  Level FlightAware ADS-B
Thu 07:48:29 PM 44.3760 -80.8170 60° Northeast 483 556 33,000  Level FlightAware ADS-B
Thu 07:49:14 PM 44.4260 -80.6990 59° Northeast 485 558 33,000  Level FlightAware ADS-B
Thu 07:49:54 PM 44.4730 -80.5850 60° Northeast 486 559 33,000  Level FlightAware ADS-B
Thu 07:50:34 PM 44.5190 -80.4770 59° Northeast 486 559 33,000  Level FlightAware ADS-B
Thu 07:51:14 PM 44.5650 -80.3660 60° Northeast 488 562 33,000  Level FlightAware ADS-B
Thu 07:51:59 PM 44.6150 -80.2440 60° Northeast 489 563 33,000  Level FlightAware ADS-B
Thu 07:52:44 PM 44.6650 -80.1230 60° Northeast 491 565 33,000  Level FlightAware ADS-B
Thu 07:53:24 PM 44.7130 -80.0080 60° Northeast 493 567 33,000  Level FlightAware ADS-B
Thu 07:54:04 PM 44.7570 -79.9000 60° Northeast 494 568 33,000  Level FlightAware ADS-B
Thu 07:54:49 PM 44.8070 -79.7780 60° Northeast 496 571 33,000  Level FlightAware ADS-B
Thu 07:55:24 PM 44.8480 -79.6760 60° Northeast 496 571 33,000  Level FlightAware ADS-B
Thu 07:56:09 PM 44.8980 -79.5510 61° Northeast 496 571 33,000  Level FlightAware ADS-B
Thu 07:56:49 PM 44.9440 -79.4340 61° Northeast 496 571 33,000  Level FlightAware ADS-B
Thu 07:57:34 PM 44.9950 -79.3070 60° Northeast 497 572 33,000  Level FlightAware ADS-B
Thu 07:58:19 PM 45.0440 -79.1840 61° Northeast 497 572 33,000  Level FlightAware ADS-B
Thu 07:58:59 PM 45.0900 -79.0670 61° Northeast 498 573 33,000  Level FlightAware ADS-B
Thu 07:59:39 PM 45.1310 -78.9630 61° Northeast 498 573 33,000  Level FlightAware ADS-B
Thu 08:00:24 PM 45.1860 -78.8240 61° Northeast 499 574 33,000  Level FlightAware ADS-B
Thu 08:01:04 PM 45.2310 -78.7100 61° Northeast 498 573 33,000  Level FlightAware ADS-B
Thu 08:01:49 PM 45.2810 -78.5830 61° Northeast 499 574 33,000  Level FlightAware ADS-B
Thu 08:02:29 PM 45.3240 -78.4750 60° Northeast 499 574 33,000  Level FlightAware ADS-B
Thu 08:03:14 PM 45.3750 -78.3420 61° Northeast 499 574 33,000  Level FlightAware ADS-B
Thu 08:03:54 PM 45.4200 -78.2260 61° Northeast 499 574 33,000  Level FlightAware ADS-B
Thu 08:04:34 PM 45.4650 -78.1100 61° Northeast 499 574 33,000  Level FlightAware ADS-B
Thu 08:05:14 PM 45.5090 -77.9950 61° Northeast 498 573 33,000  Level FlightAware ADS-B
Thu 08:05:59 PM 45.5580 -77.8660 61° Northeast 498 573 33,000  Level FlightAware ADS-B
Thu 08:06:44 PM 45.6060 -77.7390 62° Northeast 498 573 33,000  Level FlightAware ADS-B
Thu 08:07:24 PM 45.6500 -77.6220 62° Northeast 499 574 33,000  Level FlightAware ADS-B
Thu 08:08:04 PM 45.6950 -77.5090 60° Northeast 499 574 33,000  Level FlightAware ADS-B
Thu 08:08:44 PM 45.7430 -77.3900 60° Northeast 500 575 33,000  Level FlightAware ADS-B
Thu 08:09:29 PM 45.7950 -77.2640 59° Northeast 500 575 33,000  Level FlightAware ADS-B
Thu 08:10:09 PM 45.8420 -77.1460 60° Northeast 501 577 33,000  Level FlightAware ADS-B
Thu 08:11:09 PM 45.9090 -76.9760 60° Northeast 502 578 33,000  Level FlightAware ADS-B
Thu 08:11:44 PM 45.9480 -76.8780 60° Northeast 503 579 33,000  Level FlightAware ADS-B
Thu 08:12:34 PM 46.0080 -76.7270 60° Northeast 503 579 33,000  Level FlightAware ADS-B
Thu 08:13:29 PM 46.0670 -76.5790 60° Northeast 504 580 33,000  Level FlightAware ADS-B
Thu 08:14:09 PM 46.1160 -76.4510 61° Northeast 504 580 33,000  Level FlightAware ADS-B
Thu 08:14:49 PM 46.1630 -76.3330 60° Northeast 505 581 33,000  Level FlightAware ADS-B
Thu 08:15:34 PM 46.2140 -76.2010 61° Northeast 506 582 33,000  Level FlightAware ADS-B
Thu 08:16:14 PM 46.2590 -76.0830 61° Northeast 505 581 33,000  Level FlightAware ADS-B
Thu 08:16:59 PM 46.3110 -75.9510 60° Northeast 505 581 33,000  Level FlightAware ADS-B
Thu 08:17:39 PM 46.3560 -75.8320 61° Northeast 505 581 33,000  Level FlightAware ADS-B
Thu 08:18:09 PM 46.3900 -75.7450 60° Northeast 506 582 33,000  Level FlightAware ADS-B
Thu 08:18:49 PM 46.4350 -75.6260 61° Northeast 505 581 33,000  Level FlightAware ADS-B
Thu 08:19:34 PM 46.4860 -75.4920 61° Northeast 506 582 33,000  Level FlightAware ADS-B
Thu 08:20:14 PM 46.5310 -75.3740 61° Northeast 504 580 33,000  Level FlightAware ADS-B
Thu 08:20:54 PM 46.5740 -75.2590 61° Northeast 505 581 33,000  Level FlightAware ADS-B
Thu 08:21:39 PM 46.6260 -75.1220 61° Northeast 504 580 33,000  Level FlightAware ADS-B
Thu 08:22:19 PM 46.6710 -75.0030 61° Northeast 505 581 33,000  Level FlightAware ADS-B
Thu 08:23:04 PM 46.7210 -74.8700 61° Northeast 505 581 33,000  Level FlightAware ADS-B
Thu 08:23:44 PM 46.7660 -74.7490 61° Northeast 505 581 33,000  Level FlightAware ADS-B
Thu 08:24:19 PM 46.8050 -74.6440 61° Northeast 505 581 33,000  Level FlightAware ADS-B
Thu 08:25:09 PM 46.8620 -74.4880 62° Northeast 507 583 33,000  Level FlightAware ADS-B
Thu 08:25:49 PM 46.9070 -74.3690 61° Northeast 506 582 33,000  Level FlightAware ADS-B
Thu 08:26:34 PM 46.9570 -74.2330 62° Northeast 507 583 33,000  Level FlightAware ADS-B
Thu 08:27:14 PM 47.0010 -74.1110 62° Northeast 507 583 33,000  Level FlightAware ADS-B
Thu 08:27:54 PM 47.0440 -73.9920 62° Northeast 506 582 33,000  Level FlightAware ADS-B
Thu 08:28:39 PM 47.0940 -73.8560 62° Northeast 506 582 33,000  Level FlightAware ADS-B
Thu 08:29:19 PM 47.1380 -73.7340 62° Northeast 506 582 33,000  Level FlightAware ADS-B
Thu 08:30:04 PM 47.1870 -73.5980 62° Northeast 505 581 33,000  Level FlightAware ADS-B
Thu 08:30:44 PM 47.2310 -73.4760 62° Northeast 504 580 33,000  Level FlightAware ADS-B
Thu 08:31:24 PM 47.2740 -73.3550 62° Northeast 503 579 33,000  Level FlightAware ADS-B
Thu 08:32:09 PM 47.3220 -73.2190 62° Northeast 502 578 33,000  Level FlightAware ADS-B
Thu 08:32:49 PM 47.3640 -73.0990 63° Northeast 500 575 33,000  Level FlightAware ADS-B
Thu 08:33:29 PM 47.4060 -72.9780 63° Northeast 500 575 33,000  Level FlightAware ADS-B
Thu 08:34:14 PM 47.4540 -72.8420 62° Northeast 499 574 33,000  Level FlightAware ADS-B
Thu 08:34:54 PM 47.4960 -72.7220 63° Northeast 500 575 33,000  Level FlightAware ADS-B
Thu 08:35:39 PM 47.5430 -72.5850 63° Northeast 500 575 33,000  Level FlightAware ADS-B
Thu 08:36:19 PM 47.5860 -72.4630 62° Northeast 500 575 33,000  Level FlightAware ADS-B
Thu 08:37:04 PM 47.6330 -72.3260 63° Northeast 501 577 33,000  Level FlightAware ADS-B
Thu 08:37:44 PM 47.6750 -72.2040 63° Northeast 503 579 33,000  Level FlightAware ADS-B
Thu 08:38:24 PM 47.7160 -72.0830 63° Northeast 503 579 33,000  Level FlightAware ADS-B
Thu 08:39:09 PM 47.7640 -71.9430 63° Northeast 504 580 33,000  Level FlightAware ADS-B
Thu 08:39:49 PM 47.8050 -71.8200 64° Northeast 506 582 33,000  Level FlightAware ADS-B
Thu 08:40:34 PM 47.8520 -71.6810 63° Northeast 507 583 33,000  Level FlightAware ADS-B
Thu 08:41:14 PM 47.8940 -71.5560 63° Northeast 507 583 33,000  Level FlightAware ADS-B
Thu 08:41:54 PM 47.9360 -71.4310 63° Northeast 508 585 33,000  Level FlightAware ADS-B
Thu 08:42:39 PM 47.9830 -71.2890 64° Northeast 509 586 33,000  Level FlightAware ADS-B
Thu 08:43:19 PM 48.0240 -71.1630 64° Northeast 509 586 33,000  Level FlightAware ADS-B
Thu 08:44:04 PM 48.0700 -71.0220 64° Northeast 511 588 33,000  Level FlightAware ADS-B
Thu 08:44:44 PM 48.1100 -70.8970 64° Northeast 512 589 33,000  Level FlightAware ADS-B
Thu 08:45:24 PM 48.1510 -70.7680 64° Northeast 512 589 33,000  Level FlightAware ADS-B
Thu 08:46:09 PM 48.1970 -70.6270 64° Northeast 514 592 33,000  Level FlightAware ADS-B
Thu 08:46:49 PM 48.2350 -70.5080 64° Northeast 513 590 33,000  Level FlightAware ADS-B
Thu 08:47:34 PM 48.2790 -70.3700 64° Northeast 513 590 33,000  Level FlightAware ADS-B
Thu 08:48:04 PM 48.3130 -70.2620 65° Northeast 515 593 33,000  Level FlightAware ADS-B
Thu 08:48:54 PM 48.3610 -70.1130 64° Northeast 515 593 33,000  Level FlightAware ADS-B
Thu 08:49:34 PM 48.3160 -70.2530 244° Southwest 513 590 33,000  Level FlightAware ADS-B
Thu 08:50:19 PM 48.3250 -70.2250 64° Northeast 513 590 33,000  Level FlightAware ADS-B
Thu 08:50:59 PM 48.3610 -70.1160 64° Northeast 513 590 33,000  Level FlightAware ADS-B
Thu 08:51:39 PM 48.3960 -70.0070 64° Northeast 513 590 33,000  Level FlightAware ADS-B
Thu 08:52:19 PM 48.4310 -69.8980 64° Northeast 513 590 33,000  Level FlightAware ADS-B
Thu 08:52:59 PM 48.4670 -69.7880 64° Northeast 513 590 33,000  Level FlightAware ADS-B
Thu 08:53:49 PM 48.5110 -69.6520 64° Northeast 513 590 33,000  Level FlightAware ADS-B
Thu 08:54:29 PM 48.5460 -69.5420 64° Northeast 513 590 33,000  Level FlightAware ADS-B
Thu 08:55:09 PM 48.5820 -69.4320 64° Northeast 513 590 33,000  Level FlightAware ADS-B
Thu 08:55:49 PM 48.6170 -69.3230 64° Northeast 513 590 33,000  Level FlightAware ADS-B
Thu 08:56:39 PM 48.6610 -69.1860 64° Northeast 513 590 33,000  Level FlightAware ADS-B
Thu 08:57:19 PM 48.6970 -69.0760 64° Northeast 513 590 33,000  Level FlightAware ADS-B
Thu 08:57:59 PM 48.7320 -68.9660 64° Northeast 513 590 33,000  Level FlightAware ADS-B
Thu 08:58:39 PM 48.7670 -68.8560 64° Northeast 513 590 33,000  Level FlightAware ADS-B
Thu 08:59:19 PM 48.8030 -68.7460 64° Northeast 513 590 33,000  Level FlightAware ADS-B
Thu 08:59:34 PM 49.1500 -68.0833 64° Northeast 530 610 33,000  Level Gander Center
Thu 08:59:59 PM 49.1833 -67.9833 63° Northeast 520 598 33,000  Level Montreal Center
Thu 09:00:02 PM 49.1833 -67.9833 63° Northeast 530 610 33,000  Level Moncton Center
Thu 09:00:59 PM 49.2667 -67.7833 57° Northeast 530 610 33,000  Level Montreal Center
Thu 09:01:59 PM 49.3333 -67.6000 61° Northeast 530 610 33,000  Level Montreal Center
Thu 09:02:59 PM 49.4333 -67.4000 52° Northeast 530 610 33,000  Level Montreal Center
Thu 09:03:59 PM 49.5167 -67.2167 55° Northeast 530 610 33,000  Level Montreal Center
Thu 09:04:59 PM 49.6000 -67.0000 59° Northeast 530 610 33,000  Level Montreal Center
Thu 09:05:59 PM 49.6667 -66.8333 58° Northeast 540 621 33,000  Level Montreal Center
Thu 09:06:59 PM 49.7500 -66.6333 57° Northeast 540 621 33,000  Level Montreal Center
Thu 09:07:59 PM 49.8333 -66.4333 57° Northeast 540 621 33,000  Level Montreal Center
Thu 09:08:59 PM 49.9167 -66.2333 57° Northeast 540 621 33,000  Level Montreal Center
Thu 09:09:59 PM 49.9833 -66.0333 63° Northeast 540 621 33,000  Level Montreal Center
Thu 09:10:59 PM 50.0667 -65.8333 57° Northeast 540 621 33,000  Level Montreal Center
Thu 09:11:59 PM 50.1500 -65.6167 59° Northeast 550 633 33,000  Level Montreal Center
Thu 09:12:59 PM 50.2333 -65.4167 57° Northeast 550 633 33,000  Level Montreal Center
Thu 09:13:59 PM 50.3167 -65.2167 57° Northeast 550 633 33,000  Level Montreal Center
Thu 09:14:59 PM 50.3833 -65.0333 60° Northeast 540 621 33,000  Level Montreal Center
Thu 09:15:34 PM 50.4500 -64.9333 44° Northeast 550 633 33,000  Level Gander Center
Thu 09:16:34 PM 50.5167 -64.7333 62° Northeast 540 621 33,000  Level Gander Center
Thu 09:17:34 PM 50.6167 -64.5167 54° Northeast 540 621 33,000  Level Gander Center
Thu 09:18:34 PM 50.6833 -64.3167 62° Northeast 540 621 33,000  Level Gander Center
Thu 09:19:02 PM 50.7167 -64.2333 58° Northeast 540 621 33,000  Level Moncton Center
Thu 09:20:02 PM 50.8000 -64.0333 57° Northeast 540 621 33,000  Level Moncton Center
Thu 09:20:34 PM 50.8333 -63.9000 68° East 540 621 33,000  Level Gander Center
Thu 09:21:02 PM 50.8667 -63.8167 58° Northeast 540 621 33,000  Level Moncton Center
Thu 09:22:02 PM 50.9500 -63.6333 54° Northeast 540 621 33,000  Level Moncton Center
Thu 09:22:34 PM 50.9833 -63.4833 71° East 540 621 33,000  Level Gander Center
Thu 09:23:34 PM 51.0500 -63.3000 60° Northeast 550 633 33,000  Level Gander Center
Thu 09:24:34 PM 51.1500 -63.0667 56° Northeast 550 633 33,000  Level Gander Center
Thu 09:25:34 PM 51.2167 -62.8833 60° Northeast 550 633 33,000  Level Gander Center
Thu 09:26:02 PM 51.2500 -62.7667 65° Northeast 550 633 33,000  Level Moncton Center
Thu 09:27:02 PM 51.3167 -62.5500 64° Northeast 550 633 33,000  Level Moncton Center
Thu 09:27:34 PM 51.3667 -62.4667 46° Northeast 550 633 33,000  Level Gander Center
Thu 09:28:34 PM 51.4333 -62.2167 67° East 550 633 33,000  Level Gander Center
Thu 09:29:34 PM 51.5000 -62.0000 64° Northeast 550 633 33,000  Level Gander Center
Thu 09:30:34 PM 51.5833 -61.8000 56° Northeast 550 633 33,000  Level Gander Center
Thu 09:31:34 PM 51.6500 -61.5833 64° Northeast 550 633 33,000  Level Gander Center
Thu 09:32:02 PM 51.7000 -61.4833 51° Northeast 550 633 33,000  Level Moncton Center
Thu 09:33:02 PM 51.7667 -61.2667 63° Northeast 540 621 33,000  Level Moncton Center
Thu 09:34:02 PM 51.8333 -61.0333 65° Northeast 540 621 33,000  Level Moncton Center
Thu 09:34:34 PM 51.8667 -60.9500 57° Northeast 540 621 33,000  Level Gander Center
Thu 09:35:34 PM 51.9333 -60.7333 63° Northeast 530 610 33,000  Level Gander Center
Thu 09:36:02 PM 51.9833 -60.6167 55° Northeast 530 610 33,000  Level Moncton Center
Thu 09:37:02 PM 52.0500 -60.4167 61° Northeast 530 610 33,000  Level Moncton Center
Thu 09:37:34 PM 52.0833 -60.3000 65° Northeast 530 610 33,000  Level Gander Center
Thu 09:38:02 PM 52.1333 -60.2000 51° Northeast 530 610 33,000  Level Moncton Center
Thu 09:39:02 PM 52.2000 -60.0000 61° Northeast 530 610 33,000  Level Moncton Center
Thu 09:40:02 PM 52.2833 -59.8000 56° Northeast 530 610 33,000  Level Moncton Center
Thu 09:40:34 PM 52.3167 -59.7000 61° Northeast 520 598 33,000  Level Gander Center
Thu 09:41:34 PM 52.4000 -59.4667 60° Northeast 530 610 33,000  Level Gander Center
Thu 09:42:34 PM 52.4667 -59.2833 59° Northeast 530 610 33,000  Level Gander Center
Thu 09:43:34 PM 52.5333 -59.0833 61° Northeast 530 610 33,000  Level Gander Center
Thu 09:44:34 PM 52.6000 -58.8667 63° Northeast 530 610 33,000  Level Gander Center
Thu 09:45:02 PM 52.6333 -58.7500 65° Northeast 530 610 33,000  Level Moncton Center
Thu 09:46:02 PM 52.7167 -58.5333 58° Northeast 530 610 33,000  Level Moncton Center
Thu 09:46:34 PM 52.7667 -58.4333 50° Northeast 530 610 33,000  Level Gander Center
Thu 09:47:34 PM 52.8167 -58.2167 69° East 530 610 33,000  Level Gander Center
Thu 09:48:02 PM 52.8667 -58.1000 55° Northeast 530 610 33,000  Level Moncton Center
Thu 09:49:02 PM 52.9333 -57.9000 61° Northeast 530 610 33,000  Level Moncton Center
Thu 09:50:02 PM 53.0000 -57.7000 61° Northeast 520 598 33,000  Level Moncton Center
Thu 09:50:34 PM 53.0333 -57.5833 65° Northeast 520 598 33,000  Level Gander Center
Thu 09:51:34 PM 53.1000 -57.3500 64° Northeast 520 598 33,000 341 Level Gander Center
Thu 09:52:02 PM 53.1333 -57.2500 61° Northeast 520 598 33,500 682 Climbing Moncton Center
Thu 09:53:02 PM 53.2000 -57.0500 61° Northeast 520 598 34,000 250 Climbing Moncton Center
Thu 09:54:02 PM 53.2667 -56.8333 63° Northeast 520 598 34,000  Level Moncton Center
Thu 09:55:02 PM 53.3500 -56.6333 55° Northeast 510 587 34,000  Level Moncton Center
Thu 09:55:34 PM 53.3833 -56.5167 64° Northeast 510 587 34,000  Level Gander Center
Thu 09:56:02 PM 53.4167 -56.4167 61° Northeast 520 598 34,000  Level Moncton Center
Thu 09:57:02 PM 53.4667 -56.1833 70° East 530 610 34,000  Level Moncton Center
Thu 09:58:02 PM 53.5500 -55.9667 57° Northeast 530 610 34,000  Level Moncton Center
Thu 09:58:34 PM 53.5833 -55.8667 61° Northeast 540 621 34,000  Level Gander Center
Thu 09:59:34 PM 53.6500 -55.6333 64° Northeast 540 621 34,000  Level Gander Center
Thu 10:00:34 PM 53.7167 -55.4000 64° Northeast 540 621 34,000  Level Gander Center
Thu 10:01:34 PM 53.7833 -55.1667 64° Northeast 540 621 34,000  Level Gander Center
Thu 10:02:34 PM 53.8500 -54.9500 62° Northeast 540 621 34,000  Level Gander Center
Thu 10:03:34 PM 53.9000 -54.7167 70° East 530 610 34,000  Level Gander Center
Thu 10:04:34 PM 53.9667 -54.4833 64° Northeast 520 598 34,000  Level Gander Center
Thu 10:05:34 PM 54.0000 -54.2833 74° East 520 598 34,000  Level Gander Center
Thu 10:06:34 PM 54.0500 -54.0500 70° East 530 610 34,000  Level Gander Center
Thu 10:07:34 PM 54.1000 -53.8333 68° East 530 610 34,000  Level Gander Center
Thu 10:08:34 PM 54.1500 -53.6000 70° East 520 598 34,000  Level Gander Center
Thu 10:09:34 PM 54.2167 -53.3500 65° Northeast 520 598 34,000  Level Gander Center
Thu 10:10:34 PM 54.2667 -53.1167 70° East 520 598 34,000  Level Gander Center
Thu 10:11:34 PM 54.3167 -52.9000 68° East 520 598 34,000  Level Gander Center
Thu 10:12:34 PM 54.3667 -52.6667 70° East 520 598 34,000  Level Gander Center
Thu 10:13:34 PM 54.4333 -52.4167 65° Northeast 520 598 34,000  Level Gander Center
Thu 10:14:31 PM 54.4833 -52.2000 68° East 520 598 34,000  Level Gander Center
Thu 10:15:31 PM 54.5333 -51.9667 70° East 520 598 34,000  Level Gander Center
Thu 10:16:31 PM 54.5833 -51.7500 68° East 520 598 34,000  Level Gander Center
Thu 10:17:31 PM 54.6333 -51.5000 71° East 520 598 34,000  Level Gander Center
Thu 10:18:31 PM 54.6833 -51.2667 70° East 520 598 34,000  Level Gander Center
Thu 10:19:31 PM 54.7333 -51.0500 68° East 520 598 34,000  Level Gander Center
Thu 10:20:31 PM 54.7667 -50.8000 77° East 510 587 34,000  Level Gander Center
Thu 10:21:31 PM 54.8167 -50.5833 68° East 510 587 34,000  Level Gander Center
Thu 10:22:31 PM 54.8667 -50.3333 71° East 510 587 34,000  Level Gander Center
Thu 10:23:31 PM 54.9167 -50.1167 68° East 510 587 34,000  Level Gander Center
Thu 10:25:00 PM 54.9713 -49.7923 66° East  Level Estimated
Thu 10:32:00 PM 55.3543 -48.2740 66° East  Level FlightAware Approximate
Thu 10:33:00 PM 55.4075 -48.0547 67° East  Level FlightAware Approximate
Thu 10:34:00 PM 55.4603 -47.8348 67° East  Level FlightAware Approximate
Thu 10:35:00 PM 55.5127 -47.6144 67° East  Level FlightAware Approximate
Thu 10:36:00 PM 55.5647 -47.3933 67° East  Level FlightAware Approximate
Thu 10:37:00 PM 55.6162 -47.1717 68° East  Level FlightAware Approximate
Thu 10:38:00 PM 55.6674 -46.9495 68° East  Level FlightAware Approximate
Thu 10:39:00 PM 55.7182 -46.7267 68° East  Level FlightAware Approximate
Thu 10:40:00 PM 55.7686 -46.5034 68° East  Level FlightAware Approximate
Thu 10:41:00 PM 55.8185 -46.2794 68° East  Level FlightAware Approximate
Thu 10:42:00 PM 55.8681 -46.0549 68° East  Level FlightAware Approximate
Thu 10:43:00 PM 55.9173 -45.8299 69° East  Level FlightAware Approximate
Thu 10:44:00 PM 55.9660 -45.6042 69° East  Level FlightAware Approximate
Thu 10:45:00 PM 56.0143 -45.3780 69° East  Level FlightAware Approximate
Thu 10:46:00 PM 56.0622 -45.1512 69° East  Level FlightAware Approximate
Thu 10:47:00 PM 56.1097 -44.9239 69° East  Level FlightAware Approximate
Thu 10:48:00 PM 56.1568 -44.6960 70° East  Level FlightAware Approximate
Thu 10:49:00 PM 56.2035 -44.4675 70° East  Level FlightAware Approximate
Thu 10:50:00 PM 56.2497 -44.2385 70° East  Level FlightAware Approximate
Thu 10:51:00 PM 56.2955 -44.0089 70° East  Level FlightAware Approximate
Thu 10:52:00 PM 56.3409 -43.7788 70° East  Level FlightAware Approximate
Thu 10:53:00 PM 56.3859 -43.5482 71° East  Level FlightAware Approximate
Thu 10:54:00 PM 56.4304 -43.3170 71° East  Level FlightAware Approximate
Thu 10:55:00 PM 56.4745 -43.0852 71° East  Level FlightAware Approximate
Thu 10:56:00 PM 56.5193 -42.8448 72° East  Level FlightAware Approximate
Thu 10:57:00 PM 56.5616 -42.6115 72° East  Level FlightAware Approximate
Thu 10:58:00 PM 56.6035 -42.3776 72° East  Level FlightAware Approximate
Thu 10:59:00 PM 56.6450 -42.1432 72° East  Level FlightAware Approximate
Thu 11:00:00 PM 56.6861 -41.9083 72° East  Level FlightAware Approximate
Thu 11:01:00 PM 56.7267 -41.6729 72° East  Level FlightAware Approximate
Thu 11:02:00 PM 56.7668 -41.4370 73° East  Level FlightAware Approximate
Thu 11:03:00 PM 56.8065 -41.2006 73° East  Level FlightAware Approximate
Thu 11:04:00 PM 56.8458 -40.9637 73° East  Level FlightAware Approximate
Thu 11:05:00 PM 56.8846 -40.7262 73° East  Level FlightAware Approximate
Thu 11:06:00 PM 56.9229 -40.4883 73° East  Level FlightAware Approximate
Thu 11:07:00 PM 56.9608 -40.2500 74° East  Level FlightAware Approximate
Thu 11:08:00 PM 56.9983 -40.0111 74° East  Level FlightAware Approximate
Thu 11:09:00 PM 57.0092 -39.7634 86° East  Level FlightAware Approximate
Thu 11:10:00 PM 57.0184 -39.5152 86° East  Level FlightAware Approximate
Thu 11:11:00 PM 57.0271 -39.2669 86° East  Level FlightAware Approximate
Thu 11:12:00 PM 57.0354 -39.0185 86° East  Level FlightAware Approximate
Thu 11:13:00 PM 57.0431 -38.7699 87° East  Level FlightAware Approximate
Thu 11:14:00 PM 57.0503 -38.5213 87° East  Level FlightAware Approximate
Thu 11:15:00 PM 57.0570 -38.2725 87° East  Level FlightAware Approximate
Thu 11:16:00 PM 57.0633 -38.0237 87° East  Level FlightAware Approximate
Thu 11:17:00 PM 57.0690 -37.7748 87° East  Level FlightAware Approximate
Thu 11:18:00 PM 57.0743 -37.5258 88° East  Level FlightAware Approximate
Thu 11:19:00 PM 57.0791 -37.2767 88° East  Level FlightAware Approximate
Thu 11:20:00 PM 57.0833 -37.0276 88° East  Level FlightAware Approximate
Thu 11:21:00 PM 57.0871 -36.7785 88° East  Level FlightAware Approximate
Thu 11:22:00 PM 57.0904 -36.5293 89° East  Level FlightAware Approximate
Thu 11:23:00 PM 57.0932 -36.2800 89° East  Level FlightAware Approximate
Thu 11:24:00 PM 57.0955 -36.0307 89° East  Level FlightAware Approximate
Thu 11:25:00 PM 57.0973 -35.7814 89° East  Level FlightAware Approximate
Thu 11:26:00 PM 57.0986 -35.5321 89° East  Level FlightAware Approximate
Thu 11:27:00 PM 57.0994 -35.2827 90° East  Level FlightAware Approximate
Thu 11:28:00 PM 57.0997 -35.0334 90° East  Level FlightAware Approximate
Thu 11:29:00 PM 57.0995 -34.7840 90° East  Level FlightAware Approximate
Thu 11:30:00 PM 57.0988 -34.5346 90° East  Level FlightAware Approximate
Thu 11:31:00 PM 57.0977 -34.2853 90° East  Level FlightAware Approximate
Thu 11:32:00 PM 57.0960 -34.0360 91° East  Level FlightAware Approximate
Thu 11:33:00 PM 57.0938 -33.7867 91° East  Level FlightAware Approximate
Thu 11:34:00 PM 57.0912 -33.5374 91° East  Level FlightAware Approximate
Thu 11:35:00 PM 57.0880 -33.2882 91° East  Level FlightAware Approximate
Thu 11:36:00 PM 57.0844 -33.0390 91° East  Level FlightAware Approximate
Thu 11:37:00 PM 57.0802 -32.7899 92° East  Level FlightAware Approximate
Thu 11:38:00 PM 57.0756 -32.5408 92° East  Level FlightAware Approximate
Thu 11:39:00 PM 57.0705 -32.2918 92° East  Level FlightAware Approximate
Thu 11:40:00 PM 57.0649 -32.0429 92° East  Level FlightAware Approximate
Thu 11:41:00 PM 57.0588 -31.7940 92° East  Level FlightAware Approximate
Thu 11:42:00 PM 57.0522 -31.5453 93° East  Level FlightAware Approximate
Thu 11:43:00 PM 57.0451 -31.2966 93° East  Level FlightAware Approximate
Thu 11:44:00 PM 57.0375 -31.0480 93° East  Level FlightAware Approximate
Thu 11:45:00 PM 57.0294 -30.7995 93° East  Level FlightAware Approximate
Thu 11:46:00 PM 57.0208 -30.5512 94° East  Level FlightAware Approximate
Thu 11:47:00 PM 57.0117 -30.3029 94° East  Level FlightAware Approximate
Thu 11:48:00 PM 57.0023 -30.0571 94° East  Level FlightAware Approximate
Thu 11:49:00 PM 56.9882 -29.8120 97° East  Level FlightAware Approximate
Thu 11:50:00 PM 56.9723 -29.5674 97° East  Level FlightAware Approximate
Thu 11:51:00 PM 56.9560 -29.3230 97° East  Level FlightAware Approximate
Thu 11:52:00 PM 56.9393 -29.0789 97° East  Level FlightAware Approximate
Thu 11:53:00 PM 56.9220 -28.8349 97° East  Level FlightAware Approximate
Thu 11:54:00 PM 56.9043 -28.5912 97° East  Level FlightAware Approximate
Thu 11:55:00 PM 56.8860 -28.3477 98° East  Level FlightAware Approximate
Thu 11:56:00 PM 56.8673 -28.1045 98° East  Level FlightAware Approximate
Thu 11:57:00 PM 56.8481 -27.8615 98° East  Level FlightAware Approximate
Thu 11:58:00 PM 56.8284 -27.6188 98° East  Level FlightAware Approximate
Thu 11:59:00 PM 56.8083 -27.3763 99° East  Level FlightAware Approximate
Fri 12:00:00 AM 56.7877 -27.1341 99° East  Level FlightAware Approximate
Fri 12:01:00 AM 56.7678 -26.8918 98° East  Level FlightAware Approximate
Fri 12:02:00 AM 56.7477 -26.6497 98° East  Level FlightAware Approximate
Fri 12:03:00 AM 56.7272 -26.4079 99° East  Level FlightAware Approximate
Fri 12:04:00 AM 56.7062 -26.1663 99° East  Level FlightAware Approximate
Fri 12:05:00 AM 56.6848 -25.9250 99° East  Level FlightAware Approximate
Fri 12:06:00 AM 56.6628 -25.6840 99° East  Level FlightAware Approximate
Fri 12:07:00 AM 56.6404 -25.4432 100° East  Level FlightAware Approximate
Fri 12:08:00 AM 56.6176 -25.2028 100° East  Level FlightAware Approximate
Fri 12:09:00 AM 56.5943 -24.9626 100° East  Level FlightAware Approximate
Fri 12:10:00 AM 56.5705 -24.7227 100° East  Level FlightAware Approximate
Fri 12:11:00 AM 56.5462 -24.4832 100° East  Level FlightAware Approximate
Fri 12:12:00 AM 56.5215 -24.2439 101° East  Level FlightAware Approximate
Fri 12:13:00 AM 56.4964 -24.0050 101° East  Level FlightAware Approximate
Fri 12:14:00 AM 56.4708 -23.7664 101° East  Level FlightAware Approximate
Fri 12:15:00 AM 56.4447 -23.5281 101° East  Level FlightAware Approximate
Fri 12:16:00 AM 56.4182 -23.2901 101° East  Level FlightAware Approximate
Fri 12:17:00 AM 56.3912 -23.0525 102° East  Level FlightAware Approximate
Fri 12:18:00 AM 56.3637 -22.8152 102° East  Level FlightAware Approximate
Fri 12:19:00 AM 56.3358 -22.5783 102° East  Level FlightAware Approximate
Fri 12:20:00 AM 56.3075 -22.3417 102° East  Level FlightAware Approximate
Fri 12:21:00 AM 56.2787 -22.1055 102° East  Level FlightAware Approximate
Fri 12:22:00 AM 56.2494 -21.8696 102° East  Level FlightAware Approximate
Fri 12:23:00 AM 56.2197 -21.6341 103° East  Level FlightAware Approximate
Fri 12:24:00 AM 56.1896 -21.3989 103° East  Level FlightAware Approximate
Fri 12:25:00 AM 56.1590 -21.1641 103° East  Level FlightAware Approximate
Fri 12:26:00 AM 56.1280 -20.9297 103° East  Level FlightAware Approximate
Fri 12:27:00 AM 56.0965 -20.6957 103° East  Level FlightAware Approximate
Fri 12:28:00 AM 56.0646 -20.4621 104° East  Level FlightAware Approximate
Fri 12:29:00 AM 56.0322 -20.2288 104° East  Level FlightAware Approximate
Fri 12:30:00 AM 55.9995 -19.9959 101° East  Level FlightAware Approximate
Fri 12:31:00 AM 55.9734 -19.7605 101° East  Level FlightAware Approximate
Fri 12:32:00 AM 55.9468 -19.5255 101° East  Level FlightAware Approximate
Fri 12:33:00 AM 55.9198 -19.2908 102° East  Level FlightAware Approximate
Fri 12:34:00 AM 55.8923 -19.0564 102° East  Level FlightAware Approximate
Fri 12:35:00 AM 55.8644 -18.8224 102° East  Level FlightAware Approximate
Fri 12:36:00 AM 55.8360 -18.5887 102° East  Level FlightAware Approximate
Fri 12:37:00 AM 55.8079 -18.3550 102° East  Level FlightAware Approximate
Fri 12:38:00 AM 55.7794 -18.1217 102° East  Level FlightAware Approximate
Fri 12:39:00 AM 55.7505 -17.8887 102° East  Level FlightAware Approximate
Fri 12:40:00 AM 55.7212 -17.6561 103° East  Level FlightAware Approximate
Fri 12:41:00 AM 55.6914 -17.4238 103° East  Level FlightAware Approximate
Fri 12:42:00 AM 55.6611 -17.1919 103° East  Level FlightAware Approximate
Fri 12:43:00 AM 55.6305 -16.9604 103° East  Level FlightAware Approximate
Fri 12:44:00 AM 55.5993 -16.7292 103° East  Level FlightAware Approximate
Fri 12:45:00 AM 55.5679 -16.4988 103° East  Level FlightAware Approximate
Fri 12:46:00 AM 55.5359 -16.2688 104° East  Level FlightAware Approximate
Fri 12:47:00 AM 55.5036 -16.0392 104° East  Level FlightAware Approximate
Fri 12:48:00 AM 55.4708 -15.8099 104° East  Level FlightAware Approximate
Fri 12:49:00 AM 55.4376 -15.5811 104° East  Level FlightAware Approximate
Fri 12:50:00 AM 55.4040 -15.3526 104° East  Level FlightAware Approximate
Fri 12:51:00 AM 55.3700 -15.1245 105° East  Level FlightAware Approximate
Fri 12:52:00 AM 55.3355 -14.8969 105° East  Level FlightAware Approximate
Fri 12:53:00 AM 55.3006 -14.6696 105° East  Level FlightAware Approximate
Fri 12:54:00 AM 55.2653 -14.4427 105° East  Level FlightAware Approximate
Fri 12:55:00 AM 55.2296 -14.2162 105° East  Level FlightAware Approximate
Fri 12:56:00 AM 55.1934 -13.9902 106° East  Level FlightAware Approximate
Fri 12:56:29 AM 54.7430 -13.0980 106° East 504 580 34,000  Level FlightAware ADS-B
Fri 12:57:00 AM 55.1568 -13.7645 106° East  Level FlightAware Approximate
Fri 12:58:00 AM 55.1199 -13.5393 106° East  Level FlightAware Approximate
Fri 12:59:00 AM 55.0825 -13.3144 106° East  Level FlightAware Approximate
Fri 01:00:00 AM 55.0447 -13.0900 106° East  Level FlightAware Approximate
Fri 01:00:09 AM 54.6220 -12.2200 103° East 508 585 34,000  Level FlightAware ADS-B
Fri 01:01:54 AM 54.5660 -11.8150 103° East 511 588 34,000  Level FlightAware ADS-B
Fri 01:02:34 AM 54.5430 -11.6420 103° East 510 587 34,000  Level FlightAware ADS-B
Fri 01:03:19 AM 54.5180 -11.4630 103° East 510 587 34,000  Level FlightAware ADS-B
Fri 01:03:59 AM 54.4970 -11.3110 103° East 510 587 34,000  Level FlightAware ADS-B
Fri 01:04:44 AM 54.4730 -11.1310 103° East 509 586 34,000 600 Level FlightAware ADS-B
Fri 01:05:19 AM 54.4550 -10.9930 103° East 500 575 34,800 750 Climbing FlightAware ADS-B
Fri 01:06:04 AM 54.4320 -10.8200 103° East 485 558 35,000 133 Climbing FlightAware ADS-B
Fri 01:06:49 AM 54.4090 -10.6510 103° East 489 563 35,000  Level FlightAware ADS-B
Fri 01:07:29 AM 54.3870 -10.5020 104° East 494 568 35,000  Level FlightAware ADS-B
Fri 01:08:14 AM 54.3620 -10.3340 104° East 501 577 35,000  Level FlightAware ADS-B
Fri 01:08:54 AM 54.3380 -10.1740 104° East 507 583 35,000  Level FlightAware ADS-B
Fri 01:09:34 AM 54.3140 -10.0190 105° East 510 587 35,000  Level FlightAware ADS-B
Fri 01:10:19 AM 54.2860 -9.8450 105° East 511 588 35,000  Level FlightAware ADS-B
Fri 01:10:59 AM 54.2600 -9.6890 106° East 509 586 35,000  Level FlightAware ADS-B
Fri 01:11:44 AM 54.2320 -9.5150 105° East 508 585 35,000  Level FlightAware ADS-B
Fri 01:12:24 AM 54.2070 -9.3590 105° East 504 580 35,000  Level FlightAware ADS-B
Fri 01:13:04 AM 54.1810 -9.2020 106° East 502 578 35,000  Level FlightAware ADS-B
Fri 01:13:49 AM 54.1530 -9.0380 106° East 498 573 35,000 -1,548 Level FlightAware ADS-B
Fri 01:14:06 AM 54.1242 -8.9435 106° East 466 536 33,400 -2,743 Descending FlightAware UK
Fri 01:14:24 AM 54.1126 -8.8758 106° East 464 534 33,400 4,174 Level FlightAware UK
Fri 01:14:29 AM 54.1270 -8.8810 106° East 493 567 35,000  Climbing FlightAware ADS-B
Fri 01:14:48 AM 54.0972 -8.7859 106° East 462 532 33,400 -2,595 Descending FlightAware UK
Fri 01:15:06 AM 54.0858 -8.7189 106° East 464 534 33,400 3,692 Level FlightAware UK
Fri 01:15:14 AM 54.0980 -8.7100 106° East 488 562 35,000 250 Climbing FlightAware ADS-B
Fri 01:15:30 AM 54.0704 -8.6299 106° East 454 522 33,500 -2,824 Descending FlightAware UK
Fri 01:15:48 AM 54.0586 -8.5635 107° East 458 527 33,400 3,750 Descending FlightAware UK
Fri 01:15:54 AM 54.0720 -8.5620 107° East 484 557 35,000  Climbing FlightAware ADS-B
Fri 01:16:12 AM 54.0430 -8.4746 107° East 456 525 33,400 -2,667 Descending FlightAware UK
Fri 01:16:30 AM 54.0318 -8.4093 106° East 458 527 33,400 4,364 Level FlightAware UK
Fri 01:16:34 AM 54.0470 -8.4200 106° East 480 552 35,000  Climbing FlightAware ADS-B
Fri 01:16:54 AM 54.0165 -8.3225 106° East 454 522 33,400  Descending FlightAware UK
Fri 01:17:19 AM 54.0180 -8.2530 106° East 478 550 35,000  Climbing FlightAware ADS-B
Fri 01:17:36 AM 53.9902 -8.1698 106° East 444 511 33,400 -2,743 Descending FlightAware UK
Fri 01:17:54 AM 53.9788 -8.1043 107° East 448 516 33,400 4,174 Level FlightAware UK
Fri 01:17:59 AM 53.9920 -8.1090 107° East 478 550 35,000  Climbing FlightAware ADS-B
Fri 01:18:18 AM 53.9632 -8.0177 107° East 450 518 33,400 -2,595 Descending FlightAware UK
Fri 01:18:36 AM 53.9514 -7.9529 107° East 450 518 33,400 4,571 Level FlightAware UK
Fri 01:18:39 AM 53.9670 -7.9640 107° East 476 548 35,000 333 Climbing FlightAware ADS-B
Fri 01:18:54 AM 53.9398 -7.8883 107° East 450 518 33,500 -2,727 Descending FlightAware UK
Fri 01:19:12 AM 53.9281 -7.8236 107° East 450 518 33,500 3,000 Level FlightAware UK
Fri 01:19:24 AM 53.9380 -7.8030 107° East 477 549 35,000  Climbing FlightAware ADS-B
Fri 01:19:42 AM 53.9088 -7.7156 107° East 448 516 33,500 -2,500 Descending FlightAware UK
Fri 01:20:00 AM 53.8972 -7.6506 107° East 448 516 33,500 4,091 Level FlightAware UK
Fri 01:20:04 AM 53.9130 -7.6640 107° East 482 555 35,000  Climbing FlightAware ADS-B
Fri 01:20:24 AM 53.8816 -7.5638 107° East 454 522 33,500 -2,368 Descending FlightAware UK
Fri 01:20:42 AM 53.8697 -7.4986 107° East 452 520 33,500 3,600 Level FlightAware UK
Fri 01:20:49 AM 53.8820 -7.4990 107° East 486 559 35,000  Climbing FlightAware ADS-B
Fri 01:21:06 AM 53.8535 -7.4113 107° East 456 525 33,500 -2,571 Descending FlightAware UK
Fri 01:21:24 AM 53.8411 -7.3453 108° East 456 525 33,500 3,913 Level FlightAware UK
Fri 01:21:29 AM 53.8560 -7.3590 108° East 488 562 35,000  Climbing FlightAware ADS-B
Fri 01:21:48 AM 53.8247 -7.2563 108° East 456 525 33,500 -2,432 Descending FlightAware UK
Fri 01:22:06 AM 53.8121 -7.1899 108° East 458 527 33,500 3,462 Level FlightAware UK
Fri 01:22:14 AM 53.8240 -7.1880 108° East 491 565 35,000  Climbing FlightAware ADS-B
Fri 01:22:30 AM 53.7955 -7.1016 108° East 462 532 33,500 -2,647 Descending FlightAware UK
Fri 01:22:48 AM 53.7831 -7.0351 107° East 464 534 33,500 3,750 Level FlightAware UK
Fri 01:22:54 AM 53.7960 -7.0400 107° East 491 565 35,000  Climbing FlightAware ADS-B
Fri 01:23:12 AM 53.7662 -6.9467 107° East 464 534 33,500 -2,500 Descending FlightAware UK
Fri 01:23:30 AM 53.7533 -6.8801 108° East 470 541 33,500 4,091 Level FlightAware UK
Fri 01:23:34 AM 53.7680 -6.8960 108° East 493 567 35,000  Climbing FlightAware ADS-B
Fri 01:23:54 AM 53.7361 -6.7914 108° East 466 536 33,500 -2,368 Descending FlightAware UK
Fri 01:24:12 AM 53.7229 -6.7248 109° East 464 534 33,500 3,600 Level FlightAware UK
Fri 01:24:19 AM 53.7380 -6.7460 109° East 497 572 35,000  Climbing FlightAware ADS-B
Fri 01:24:36 AM 53.7052 -6.6360 109° East 464 534 33,500 -2,571 Descending FlightAware UK
Fri 01:24:54 AM 53.6920 -6.5692 109° East 462 532 33,500 3,913 Level FlightAware UK
Fri 01:24:59 AM 53.7060 -6.5860 109° East 498 573 35,000 -250 Climbing FlightAware ADS-B
Fri 01:25:18 AM 53.6742 -6.4802 109° East 460 529 33,400 -2,432 Descending FlightAware UK
Fri 01:25:36 AM 53.6613 -6.4133 108° East 464 534 33,500 3,692 Climbing FlightAware UK
Fri 01:25:44 AM 53.6730 -6.4190 108° East 497 572 35,000  Climbing FlightAware ADS-B
Fri 01:26:00 AM 53.6444 -6.3239 108° East 468 539 33,500 -2,647 Descending FlightAware UK
Fri 01:26:18 AM 53.6315 -6.2569 108° East 470 541 33,500 3,750 Level FlightAware UK
Fri 01:26:24 AM 53.6440 -6.2700 108° East 497 572 35,000  Climbing FlightAware ADS-B
Fri 01:26:42 AM 53.6142 -6.1678 108° East 474 545 33,500 -2,500 Descending FlightAware UK
Fri 01:27:00 AM 53.6011 -6.1011 108° East 474 545 33,500 4,091 Level FlightAware UK
Fri 01:27:04 AM 53.6160 -6.1260 108° East 495 570 35,000  Climbing FlightAware ADS-B
Fri 01:27:24 AM 53.5837 -6.0115 108° East 474 545 33,500 -2,368 Descending FlightAware UK
Fri 01:27:42 AM 53.5707 -5.9450 108° East 474 545 33,500  Level FlightAware UK
Fri 01:28:00 AM 53.5574 -5.8781 109° East 474 545 33,500  Level FlightAware UK
Fri 01:28:18 AM 53.5444 -5.8129 108° East 468 539 33,500  Level FlightAware UK
Fri 01:28:36 AM 53.5314 -5.7472 108° East 464 534 33,500 -167 Level FlightAware UK
Fri 01:28:54 AM 53.5263 -5.6783 97° East 464 534 33,400 3,913 Descending FlightAware UK
Fri 01:28:59 AM 53.5390 -5.6980 97° East 496 571 35,000 250 Climbing FlightAware ADS-B
Fri 01:29:18 AM 53.5204 -5.5856 97° East 462 532 33,500 -2,432 Descending FlightAware UK
Fri 01:29:36 AM 53.5161 -5.5164 96° East 458 527 33,500 4,286 Level FlightAware UK
Fri 01:29:39 AM 53.5300 -5.5470 96° East 494 568 35,000 -333 Climbing FlightAware ADS-B
Fri 01:29:54 AM 53.5126 -5.4472 96° East 460 529 33,400 -2,909 Descending FlightAware UK
Fri 01:30:12 AM 53.5108 -5.3781 93° East 460 529 33,400 3,840 Level FlightAware UK
Fri 01:30:19 AM 53.5230 -5.3930 93° East 492 566 35,000  Climbing FlightAware ADS-B
Fri 01:30:36 AM 53.5076 -5.2851 93° East 460 529 33,400 -2,743 Descending FlightAware UK
Fri 01:30:54 AM 53.5052 -5.2171 93° East 458 527 33,400 3,429 Level FlightAware UK
Fri 01:31:04 AM 53.5170 -5.2220 93° East 488 562 35,000  Climbing FlightAware ADS-B
Fri 01:31:24 AM 53.5010 -5.1022 93° East 456 525 33,400 -2,526 Descending FlightAware UK
Fri 01:31:42 AM 53.4982 -5.0339 94° East 456 525 33,400 4,800 Level FlightAware UK
Fri 01:31:44 AM 53.5110 -5.0750 94° East 484 557 35,000 333 Climbing FlightAware ADS-B
Fri 01:32:00 AM 53.4953 -4.9659 94° East 454 522 33,500 -2,647 Descending FlightAware UK
Fri 01:32:18 AM 53.4926 -4.8980 94° East 454 522 33,500 3,103 Level FlightAware UK
Fri 01:32:29 AM 53.5030 -4.9010 94° East 482 555 35,000  Climbing FlightAware ADS-B
Fri 01:32:48 AM 53.4879 -4.7852 94° East 448 516 33,500 -2,432 Descending FlightAware UK
Fri 01:33:06 AM 53.4849 -4.7177 94° East 448 516 33,500 3,462 Level FlightAware UK
Fri 01:33:14 AM 53.4960 -4.7390 94° East 481 554 35,000  Climbing FlightAware ADS-B
Fri 01:33:31 AM 53.4810 -4.6269 94° East 446 513 33,500 -2,647 Descending FlightAware UK
Fri 01:33:48 AM 53.4781 -4.5600 94° East 444 511 33,500 3,913 Level FlightAware UK
Fri 01:33:54 AM 53.4890 -4.5890 94° East 481 554 35,000  Climbing FlightAware ADS-B
Fri 01:34:13 AM 53.4742 -4.4690 94° East 446 513 33,500 -2,500 Descending FlightAware UK
Fri 01:34:30 AM 53.4712 -4.4021 94° East 444 511 33,500 4,286 Level FlightAware UK
Fri 01:34:34 AM 53.4820 -4.4410 94° East 483 556 35,000  Climbing FlightAware ADS-B
Fri 01:34:55 AM 53.4671 -4.3107 94° East 444 511 33,500 -2,368 Descending FlightAware UK
Fri 01:35:12 AM 53.4639 -4.2435 95° East 444 511 33,500 3,750 Level FlightAware UK
Fri 01:35:19 AM 53.4740 -4.2690 95° East 485 558 35,000  Climbing FlightAware ADS-B
Fri 01:35:43 AM 53.4585 -4.1291 95° East 448 516 33,500  Descending FlightAware UK
Fri 01:35:59 AM 53.4660 -4.1190 95° East 488 562 35,000  Climbing FlightAware ADS-B
Fri 01:36:19 AM 53.4522 -3.9918 95° East 450 518 33,500  Descending FlightAware UK
Fri 01:36:44 AM 53.4580 -3.9510 95° East 490 564 35,000  Climbing FlightAware ADS-B
Fri 01:37:01 AM 53.4445 -3.8311 95° East 448 516 33,500 -2,571 Descending FlightAware UK
Fri 01:37:19 AM 53.4411 -3.7621 95° East 448 516 33,500 3,913 Level FlightAware UK
Fri 01:37:24 AM 53.4500 -3.8040 95° East 493 567 35,000  Climbing FlightAware ADS-B
Fri 01:37:43 AM 53.4361 -3.6691 95° East 450 518 33,500 -2,432 Descending FlightAware UK
Fri 01:38:01 AM 53.4323 -3.5998 95° East 448 516 33,500 4,286 Level FlightAware UK
Fri 01:38:04 AM 53.4410 -3.6480 95° East 496 571 35,000 8,182 Climbing FlightAware ADS-B
Fri 01:38:12 AM 53.4394 -3.6101 94° East 496 571 35,000 -3,333 Level FlightAware ADS-B
Fri 01:38:31 AM 53.4262 -3.4838 94° East 452 520 33,500  Descending FlightAware UK
Fri 01:38:51 AM 53.4313 -3.4595 94° East 499 574 35,000  Climbing FlightAware ADS-B
Fri 01:39:07 AM 53.4192 -3.3437 94° East 454 522 33,500  Descending FlightAware UK
Fri 01:39:23 AM 53.4246 -3.3354 94° East 502 578 35,000  Climbing FlightAware ADS-B
Fri 01:39:43 AM 53.4121 -3.2029 94° East 454 522 33,500  Descending FlightAware UK
Fri 01:39:54 AM 53.4181 -3.2176 94° East 503 579 35,000  Climbing FlightAware ADS-B
Fri 01:40:13 AM 53.4056 -3.0846 94° East 458 527 33,500  Descending FlightAware UK
Fri 01:40:27 AM 53.4107 -3.0887 94° East 506 582 35,000  Climbing FlightAware ADS-B
Fri 01:40:43 AM 53.3990 -2.9659 94° East 462 532 33,500 -2,647 Descending FlightAware UK
Fri 01:41:01 AM 53.3952 -2.8958 95° East 464 534 33,500 3,600 Level FlightAware UK
Fri 01:41:08 AM 53.4014 -2.9291 95° East 506 582 35,000  Climbing FlightAware ADS-B
Fri 01:41:25 AM 53.3899 -2.8013 95° East 462 532 33,500  Descending FlightAware UK
Fri 01:41:39 AM 53.3939 -2.8053 95° East 508 585 35,000  Climbing FlightAware ADS-B
Fri 01:41:55 AM 53.3829 -2.6824 95° East 462 532 33,500  Descending FlightAware UK
Fri 01:42:10 AM 53.3867 -2.6866 95° East 508 585 35,000 -200 Climbing FlightAware ADS-B
Fri 01:42:25 AM 53.3759 -2.5642 95° East 460 529 33,400  Descending FlightAware UK
Fri 01:42:45 AM 53.3782 -2.5499 95° East 509 586 35,000 167 Climbing FlightAware ADS-B
Fri 01:43:01 AM 53.3674 -2.4224 95° East 460 529 33,500  Descending FlightAware UK
Fri 01:43:19 AM 53.3698 -2.4165 95° East 508 585 35,000  Climbing FlightAware ADS-B
Fri 01:43:37 AM 53.3587 -2.2807 95° East 458 527 33,500 -2,143 Descending FlightAware UK
Fri 01:44:01 AM 53.3526 -2.1866 96° East 458 527 33,500 2,045 Level FlightAware UK
Fri 01:44:21 AM 53.3508 -2.1779 96° East 502 578 35,000  Climbing FlightAware ADS-B
Fri 01:44:37 AM 53.3377 -2.0481 96° East 450 518 33,500  Descending FlightAware UK
Fri 01:44:52 AM 53.3381 -2.0606 96° East 501 577 35,000 -200 Climbing FlightAware ADS-B
Fri 01:45:07 AM 53.3255 -1.9332 96° East 450 518 33,400  Descending FlightAware UK
Fri 01:45:22 AM 53.3257 -1.9460 96° East 501 577 35,000  Climbing FlightAware ADS-B
Fri 01:45:38 AM 53.3135 -1.8175 96° East 450 518 33,400  Descending FlightAware UK
Fri 01:45:52 AM 53.3137 -1.8320 96° East 500 575 35,000  Climbing FlightAware ADS-B
Fri 01:46:08 AM 53.3017 -1.7026 96° East 448 516 33,400  Descending FlightAware UK
Fri 01:46:28 AM 53.2995 -1.6954 96° East 499 574 35,000  Climbing FlightAware ADS-B
Fri 01:46:50 AM 53.2856 -1.5419 96° East 450 518 33,400  Descending FlightAware UK
Fri 01:47:01 AM 53.2864 -1.5687 96° East 499 574 35,000 200 Climbing FlightAware ADS-B
Fri 01:47:20 AM 53.2740 -1.4266 96° East 450 518 33,500 -2,432 Descending FlightAware UK
Fri 01:47:38 AM 53.2668 -1.3573 100° East 448 516 33,500 3,462 Level FlightAware UK
Fri 01:47:46 AM 53.2687 -1.3996 100° East 500 575 35,000  Climbing FlightAware ADS-B
Fri 01:48:02 AM 53.2574 -1.2657 100° East 448 516 33,500  Descending FlightAware UK
Fri 01:48:17 AM 53.2564 -1.2820 100° East 501 577 35,000  Climbing FlightAware ADS-B
Fri 01:48:32 AM 53.2454 -1.1513 100° East 446 513 33,500  Descending FlightAware UK
Fri 01:48:47 AM 53.2440 -1.1673 100° East 501 577 35,000  Climbing FlightAware ADS-B
Fri 01:49:14 AM 53.2283 -0.9902 100° East 448 516 33,500  Descending FlightAware UK
Fri 01:49:19 AM 53.2310 -1.0500 100° East 500 575 35,000  Climbing FlightAware ADS-B
Fri 01:49:50 AM 53.2137 -0.8528 100° East 450 518 33,500  Descending FlightAware UK
Fri 01:49:59 AM 53.2150 -0.8990 100° East 501 577 35,000  Climbing FlightAware ADS-B
Fri 01:50:14 AM 53.2038 -0.7614 100° East 452 520 33,500 -2,308 Descending FlightAware UK
Fri 01:50:38 AM 53.1940 -0.6699 100° East 448 516 33,500 3,000 Level FlightAware UK
Fri 01:50:44 AM 53.1970 -0.7320 100° East 502 578 35,000 4,091 Climbing FlightAware ADS-B
Fri 01:51:00 AM 53.1891 -0.6619 101° East 501 577 35,000  Level FlightAware ADS-B
Fri 01:51:31 AM 53.1762 -0.5450 100° East 501 577 35,000 -1,765 Level FlightAware ADS-B
Fri 01:51:51 AM 53.1644 -0.3942 100° East 442 509 33,500  Descending FlightAware UK
Fri 01:52:01 AM 53.1634 -0.4290 100° East 502 578 35,000  Climbing FlightAware ADS-B
Fri 01:52:21 AM 53.1517 -0.2803 100° East 442 509 33,500  Descending FlightAware UK
Fri 01:52:31 AM 53.1503 -0.3154 100° East 503 579 35,000  Climbing FlightAware ADS-B
Fri 01:52:51 AM 53.1386 -0.1663 100° East 444 511 33,500  Descending FlightAware UK
Fri 01:53:02 AM 53.1371 -0.2002 100° East 502 578 35,000 2,143 Climbing FlightAware ADS-B
Fri 01:53:33 AM 53.1235 -0.0843 101° East 503 579 35,000 -1,837 Level FlightAware ADS-B
Fri 01:53:51 AM 53.1120 0.0622 101° East 444 511 33,500  Descending FlightAware UK
Fri 01:54:03 AM 53.1098 0.0317 101° East 503 579 35,000  Climbing FlightAware ADS-B
Fri 01:54:21 AM 53.0987 0.1760 101° East 446 513 33,500  Descending FlightAware UK
Fri 01:54:34 AM 53.0957 0.1498 101° East 504 580 35,000  Climbing FlightAware ADS-B
Fri 01:54:51 AM 53.0852 0.2897 101° East 446 513 33,500  Descending FlightAware UK
Fri 01:55:05 AM 53.0816 0.2674 101° East 505 581 35,000  Climbing FlightAware ADS-B
Fri 01:55:33 AM 53.0662 0.4497 101° East 446 513 33,500  Descending FlightAware UK
Fri 01:55:42 AM 53.0648 0.4077 101° East 505 581 35,000  Climbing FlightAware ADS-B
Fri 01:55:57 AM 53.0552 0.5406 101° East 448 516 33,500  Descending FlightAware UK
Fri 01:56:16 AM 53.0497 0.5343 101° East 506 582 35,000  Climbing FlightAware ADS-B
Fri 01:56:33 AM 53.0389 0.6779 101° East 454 522 33,500  Descending FlightAware UK
Fri 01:56:46 AM 53.0356 0.6503 101° East 504 580 35,000  Climbing FlightAware ADS-B
Fri 01:57:03 AM 53.0250 0.7915 101° East 452 520 33,500  Descending FlightAware UK
Fri 01:57:18 AM 53.0210 0.7685 101° East 504 580 35,000  Climbing FlightAware ADS-B
Fri 01:57:39 AM 53.0081 0.9282 101° East 452 520 33,500  Descending FlightAware UK
Fri 01:57:48 AM 53.0070 0.8833 101° East 504 580 35,000 -250 Climbing FlightAware ADS-B
Fri 01:58:03 AM 52.9968 1.0187 101° East 452 520 33,400  Descending FlightAware UK
Fri 01:58:19 AM 52.9922 1.0016 101° East 502 578 35,000 167 Climbing FlightAware ADS-B
Fri 01:58:39 AM 52.9797 1.1536 101° East 452 520 33,500  Descending FlightAware UK
Fri 01:58:50 AM 52.9779 1.1156 101° East 500 575 35,000  Climbing FlightAware ADS-B
Fri 01:59:09 AM 52.9658 1.2656 101° East 450 518 33,500  Descending FlightAware UK
Fri 01:59:20 AM 52.9635 1.2279 101° East 500 575 35,000 2,143 Climbing FlightAware ADS-B
Fri 01:59:51 AM 52.9486 1.3456 102° East 498 573 35,000 -1,837 Level FlightAware ADS-B
Fri 02:00:09 AM 52.9374 1.4883 102° East 446 513 33,500  Descending FlightAware UK
Fri 02:00:23 AM 52.9335 1.4639 102° East 496 571 35,000  Climbing FlightAware ADS-B
Fri 02:00:40 AM 52.9231 1.5999 102° East 442 509 33,500  Descending FlightAware UK
Fri 02:00:53 AM 52.9189 1.5765 102° East 496 571 35,000  Climbing FlightAware ADS-B
Fri 02:01:10 AM 52.9083 1.7105 102° East 442 509 33,500  Descending FlightAware UK
Fri 02:01:25 AM 52.9038 1.6928 102° East 495 570 35,000  Climbing FlightAware ADS-B
Fri 02:01:40 AM 52.8937 1.8216 102° East 440 506 33,500  Descending FlightAware UK
Fri 02:01:56 AM 52.8885 1.8084 102° East 494 568 35,000  Climbing FlightAware ADS-B
Fri 02:02:22 AM 52.8731 1.9762 102° East 440 506 33,500  Descending FlightAware UK
Fri 02:02:34 AM 52.8710 1.9400 102° East 494 568 35,000  Climbing FlightAware ADS-B
Fri 02:03:10 AM 52.8500 2.1519 102° East 440 506 33,500  Descending FlightAware UK
Fri 02:03:17 AM 52.8492 2.1056 102° East 494 568 35,000  Climbing FlightAware ADS-B
Fri 02:03:34 AM 52.8382 2.2397 102° East 440 506 33,500  Descending FlightAware UK
Fri 02:03:59 AM 52.8300 2.2510 102° East 494 568 35,000  Climbing FlightAware ADS-B
Fri 02:04:16 AM 52.8171 2.3939 102° East 440 506 33,500 -2,571 Descending FlightAware UK
Fri 02:04:34 AM 52.8079 2.4595 103° East 442 509 33,500 3,214 Level FlightAware UK
Fri 02:04:44 AM 52.8060 2.4210 103° East 495 570 35,000  Climbing FlightAware ADS-B
Fri 02:05:04 AM 52.7926 2.5689 103° East 440 506 33,500 -2,368 Descending FlightAware UK
Fri 02:05:22 AM 52.7834 2.6346 103° East 440 506 33,500 4,500 Level FlightAware UK
Fri 02:05:24 AM 52.7860 2.5690 103° East 496 571 35,000  Climbing FlightAware ADS-B
Fri 02:05:40 AM 52.7744 2.7004 103° East 444 511 33,500 -2,647 Descending FlightAware UK
Fri 02:05:58 AM 52.7562 2.7591 117° Southeast 442 509 33,500 3,750 Level FlightAware UK
Fri 02:06:04 AM 52.7550 2.7060 117° Southeast 468 539 35,000  Climbing FlightAware ADS-B
Fri 02:06:22 AM 52.7315 2.8334 117° Southeast 440 506 33,500 -2,432 Descending FlightAware UK
Fri 02:06:41 AM 52.7128 2.8900 119° Southeast 440 506 33,500 3,333 Level FlightAware UK
Fri 02:06:49 AM 52.7110 2.8420 119° Southeast 473 544 35,000  Climbing FlightAware ADS-B
Fri 02:07:23 AM 52.6688 3.0211 119° Southeast 444 511 33,500  Descending FlightAware UK
Fri 02:07:29 AM 52.6670 2.9710 119° Southeast 475 547 35,000  Climbing FlightAware ADS-B
Fri 02:07:47 AM 52.6424 3.0951 119° Southeast 446 513 33,500 -2,500 Descending FlightAware UK
Fri 02:08:05 AM 52.6223 3.1508 121° Southeast 448 516 33,500 3,333 Level FlightAware UK
Fri 02:08:14 AM 52.6160 3.1150 121° Southeast 479 551 35,000  Climbing FlightAware ADS-B
Fri 02:08:53 AM 52.5693 3.3004 121° Southeast 450 518 33,500  Descending FlightAware UK
Fri 02:08:54 AM 52.5720 3.2420 121° Southeast 482 555 35,000  Climbing FlightAware ADS-B
Fri 02:09:11 AM 52.5493 3.3568 121° Southeast 452 520 33,500  Descending FlightAware UK
Fri 02:09:34 AM 52.5280 3.3660 121° Southeast 483 556 35,000  Climbing FlightAware ADS-B
Fri 02:09:53 AM 52.5023 3.4883 121° Southeast 456 525 33,500 -2,432 Descending FlightAware UK
Fri 02:10:11 AM 52.4818 3.5453 121° Southeast 456 525 33,500 3,462 Level FlightAware UK
Fri 02:10:19 AM 52.4790 3.5060 121° Southeast 485 558 35,000  Climbing FlightAware ADS-B
Fri 02:10:53 AM 52.4341 3.6766 121° Southeast 456 525 33,500  Descending FlightAware UK
Fri 02:10:59 AM 52.4330 3.6350 121° Southeast 484 557 35,000 1,957 Climbing FlightAware ADS-B
Fri 02:11:39 AM 52.3880 3.7600 120° Southeast 484 557 35,000 -1,500 Level FlightAware ADS-B
Fri 02:11:59 AM 52.3583 3.8815 120° Southeast 454 522 33,500  Descending FlightAware UK
Fri 02:12:24 AM 52.3360 3.9010 120° Southeast 483 556 35,000  Climbing FlightAware ADS-B
Fri 02:12:53 AM 52.2962 4.0485 120° Southeast 454 522 33,500  Descending FlightAware UK
Fri 02:13:04 AM 52.2900 4.0270 120° Southeast 482 555 35,000  Climbing FlightAware ADS-B
Fri 02:13:35 AM 52.2484 4.1778 120° Southeast 452 520 33,500  Descending FlightAware UK
Fri 02:13:49 AM 52.2400 4.1650 120° Southeast 480 552 35,000 1,667 Climbing FlightAware ADS-B
Fri 02:14:29 AM 52.1950 4.2900 120° Southeast 478 550 35,000  Level FlightAware ADS-B
Fri 02:15:09 AM 52.1490 4.4130 121° Southeast 477 549 35,000 -1,154 Level FlightAware ADS-B
Fri 02:15:47 AM 52.0977 4.5792 121° Southeast 448 516 33,500  Descending FlightAware UK
Fri 02:15:54 AM 52.0980 4.5530 121° Southeast 474 545 35,000  Climbing FlightAware ADS-B
Fri 02:16:11 AM 52.0714 4.6519 121° Southeast 448 516 33,500  Descending FlightAware UK
Fri 02:16:34 AM 52.0540 4.6710 121° Southeast 471 542 35,000  Climbing FlightAware ADS-B
Fri 02:16:53 AM 52.0244 4.7771 121° Southeast 446 513 33,500  Descending FlightAware UK
Fri 02:17:14 AM 52.0070 4.7970 121° Southeast 469 540 35,000 1,364 Climbing FlightAware ADS-B
Fri 02:17:59 AM 51.9580 4.9250 122° Southeast 466 536 35,000  Level FlightAware ADS-B
Fri 02:18:44 AM 51.9070 5.0590 122° Southeast 465 535 35,000  Level FlightAware ADS-B
Fri 02:19:24 AM 51.8640 5.1740 121° Southeast 464 534 35,000 -1,579 Level FlightAware ADS-B
Fri 02:19:41 AM 51.8354 5.2692 121° Southeast 440 506 33,500  Descending FlightAware UK
Fri 02:20:09 AM 51.8160 5.3010 121° Southeast 462 532 35,000  Climbing FlightAware ADS-B
Fri 02:20:41 AM 51.7660 5.4411 121° Southeast 442 509 33,500  Descending FlightAware UK
Fri 02:20:49 AM 51.7670 5.4310 121° Southeast 462 532 35,000  Climbing FlightAware ADS-B
Fri 02:21:17 AM 51.7260 5.5452 121° Southeast 440 506 33,500  Descending FlightAware UK
Fri 02:21:29 AM 51.7230 5.5440 121° Southeast 462 532 35,000  Climbing FlightAware ADS-B
Fri 02:21:47 AM 51.6935 5.6336 121° Southeast 444 511 33,500 -2,500 Descending FlightAware UK
Fri 02:22:05 AM 51.6735 5.6857 122° Southeast 444 511 33,500 3,333 Level FlightAware UK
Fri 02:22:14 AM 51.6750 5.6720 122° Southeast 463 533 35,000  Climbing FlightAware ADS-B
Fri 02:22:29 AM 51.6479 5.7561 122° Southeast 444 511 33,500  Descending FlightAware UK
Fri 02:22:54 AM 51.6280 5.7920 122° Southeast 462 532 35,000 1,286 Climbing FlightAware ADS-B
Fri 02:23:39 AM 51.5780 5.9220 122° Southeast 461 531 35,000  Level FlightAware ADS-B
Fri 02:24:19 AM 51.5360 6.0290 122° Southeast 460 529 35,000  Level FlightAware ADS-B
Fri 02:25:04 AM 51.4820 6.1660 122° Southeast 460 529 35,000  Level FlightAware ADS-B
Fri 02:25:44 AM 51.4370 6.2800 122° Southeast 459 528 35,000  Level FlightAware ADS-B
Fri 02:26:24 AM 51.3950 6.3850 123° Southeast 459 528 35,000  Level FlightAware ADS-B
Fri 02:27:04 AM 51.3430 6.5160 122° Southeast 457 526 35,000  Level FlightAware ADS-B
Fri 02:27:49 AM 51.2940 6.6380 123° Southeast 457 526 35,000  Level FlightAware ADS-B
Fri 02:28:34 AM 51.2410 6.7680 123° Southeast 456 525 35,000  Level FlightAware ADS-B
Fri 02:29:14 AM 51.1980 6.8750 123° Southeast 455 524 35,000  Level FlightAware ADS-B
Fri 02:29:54 AM 51.1530 6.9860 123° Southeast 454 522 35,000  Level FlightAware ADS-B
Fri 02:30:39 AM 51.0980 7.1100 125° Southeast 447 514 35,000  Level FlightAware ADS-B
Fri 02:31:19 AM 51.0420 7.2100 132° Southeast 441 507 35,000  Level FlightAware ADS-B
Fri 02:32:04 AM 50.9770 7.3170 134° Southeast 440 506 35,000  Level FlightAware ADS-B
Fri 02:32:39 AM 50.9310 7.3920 134° Southeast 439 505 35,000  Level FlightAware ADS-B
Fri 02:33:19 AM 50.8790 7.4770 134° Southeast 439 505 35,000  Level FlightAware ADS-B
Fri 02:34:09 AM 50.8100 7.5900 134° Southeast 437 503 35,000  Level FlightAware ADS-B
Fri 02:34:49 AM 50.7500 7.6870 134° Southeast 438 504 35,000  Level FlightAware ADS-B
Fri 02:35:24 AM 50.7000 7.7680 134° Southeast 438 504 35,000  Level FlightAware ADS-B
Fri 02:36:14 AM 50.6310 7.8780 135° Southeast 439 505 35,000  Level FlightAware ADS-B
Fri 02:36:54 AM 50.5750 7.9670 135° Southeast 439 505 35,000  Level FlightAware ADS-B
Fri 02:37:34 AM 50.5150 8.0630 134° Southeast 439 505 35,000  Level FlightAware ADS-B
Fri 02:38:14 AM 50.4600 8.1510 134° Southeast 440 506 35,000  Level FlightAware ADS-B
Fri 02:38:54 AM 50.4020 8.2450 134° Southeast 440 506 35,000  Level FlightAware ADS-B
Fri 02:39:54 AM 50.3090 8.3910 135° Southeast 439 505 35,000  Level FlightAware ADS-B
Fri 02:40:39 AM 50.2460 8.4890 135° Southeast 439 505 35,000  Level FlightAware ADS-B
Fri 02:41:24 AM 50.1820 8.5890 135° Southeast 439 505 35,000  Level FlightAware ADS-B
Fri 02:42:04 AM 50.1230 8.6790 136° Southeast 439 505 35,000  Level FlightAware ADS-B
Fri 02:42:44 AM 50.0660 8.7670 135° Southeast 439 505 35,000  Level FlightAware ADS-B
Fri 02:43:29 AM 50.0050 8.8580 136° Southeast 438 504 35,000  Level FlightAware ADS-B
Fri 02:44:09 AM 49.9430 8.9510 136° Southeast 439 505 35,000  Level FlightAware ADS-B
Fri 02:44:54 AM 49.8780 9.0470 136° Southeast 439 505 35,000  Level FlightAware ADS-B
Fri 02:45:34 AM 49.8170 9.1400 135° Southeast 439 505 35,000  Level FlightAware ADS-B
Fri 02:46:14 AM 49.7620 9.2220 136° Southeast 439 505 35,000 -424 Level FlightAware ADS-B
Fri 02:46:59 AM 49.6970 9.3190 136° Southeast 439 505 34,400 -975 Descending FlightAware ADS-B
Fri 02:47:34 AM 49.6460 9.3960 136° Southeast 441 507 33,700 -1,120 Descending FlightAware ADS-B
Fri 02:48:14 AM 49.5910 9.4880 133° Southeast 444 511 33,000 -847 Descending FlightAware ADS-B
Fri 02:48:59 AM 49.5490 9.5620 131° Southeast 442 509 32,500 -733 Descending FlightAware ADS-B
Fri 02:49:44 AM 49.4860 9.6730 131° Southeast 437 503 31,900 -1,059 Descending FlightAware ADS-B
Fri 02:50:24 AM 49.4280 9.7730 132° Southeast 435 501 31,000 -1,341 Descending FlightAware ADS-B
Fri 02:51:09 AM 49.3640 9.8820 132° Southeast 432 497 30,000 -1,740 Descending FlightAware ADS-B
Fri 02:52:04 AM 49.2870 10.0130 132° Southeast 420 483 28,100 -2,160 Descending FlightAware ADS-B
Fri 02:52:49 AM 49.2300 10.1120 131° Southeast 426 490 26,400 -1,326 Descending FlightAware ADS-B
Fri 02:53:39 AM 49.1680 10.2150 133° Southeast 449 517 26,000 -267 Descending FlightAware ADS-B
Fri 02:54:19 AM 49.1080 10.3130 133° Southeast 451 519 26,000 -1,020 Level FlightAware ADS-B
Fri 02:55:19 AM 49.0270 10.4390 134° Southeast 439 505 24,300 -2,147 Descending FlightAware ADS-B
Fri 02:55:54 AM 48.9750 10.5220 134° Southeast 432 497 22,600 -2,550 Descending FlightAware ADS-B
Fri 02:56:39 AM 48.9140 10.6170 134° Southeast 420 483 20,900 -2,329 Descending FlightAware ADS-B
Fri 02:57:19 AM 48.8610 10.7020 133° Southeast 414 476 19,300 -2,333 Descending FlightAware ADS-B
Fri 02:58:09 AM 48.7950 10.8030 135° Southeast 400 460 17,400 -2,333 Descending FlightAware ADS-B
Fri 02:58:49 AM 48.7450 10.8930 130° Southeast 397 457 15,800 -2,325 Descending FlightAware ADS-B
Fri 02:59:29 AM 48.7020 10.9860 125° Southeast 392 451 14,300 -1,756 Descending FlightAware ADS-B
Fri 03:00:17 AM 48.6480 11.0950 127° Southeast 12,500 -1,518 Descending FlightAware ADS-B
Fri 03:00:52 AM 48.6130 11.1650 127° Southeast 375 432 12,200 -1,059 Descending FlightAware ADS-B
Fri 03:01:42 AM 48.5530 11.2730 130° Southeast 365 420 11,000 -800 Descending FlightAware ADS-B
Fri 03:02:22 AM 48.5110 11.3560 127° Southeast 370 426 11,000  Level FlightAware ADS-B
Fri 03:02:57 AM 48.4730 11.4290 128° Southeast 371 427 11,000  Level FlightAware ADS-B
Fri 03:03:17 AM 48.4570 11.4710 120° Southeast 372 428 11,000  Level FlightAware ADS-B
Fri 03:03:57 AM 48.4540 11.5720 93° East 372 428 11,000  Level FlightAware ADS-B
Fri 03:04:37 AM 48.4620 11.6770 83° East 349 402 11,000 -635 Level FlightAware ADS-B
Fri 03:05:22 AM 48.4720 11.7800 82° East 310 357 10,100 -1,520 Descending FlightAware ADS-B
Fri 03:05:52 AM 48.4760 11.8440 85° East 305 351 9,100 -2,100 Descending FlightAware ADS-B
Fri 03:06:22 AM 48.4810 11.9060 83° East 300 345 8,000 -2,057 Descending FlightAware ADS-B
Fri 03:07:02 AM 48.4870 11.9880 84° East 286 329 6,700 -1,971 Descending FlightAware ADS-B
Fri 03:07:32 AM 48.4910 12.0450 84° East 279 321 5,700 -1,371 Descending FlightAware ADS-B
Fri 03:08:12 AM 48.4720 12.1110 113° Southeast 247 284 5,100 -655 Descending FlightAware ADS-B
Fri 03:08:27 AM 48.4580 12.1200 157° South 246 283 5,100 -300 Level FlightAware ADS-B
Fri 03:08:52 AM 48.4300 12.1100 193° South 242 278 4,900 -109 Descending FlightAware ADS-B
Fri 03:09:22 AM 48.4080 12.0710 230° Southwest 231 266 5,000  Climbing FlightAware ADS-B
Fri 03:09:37 AM 48.4050 12.0480 259° West 234 269 4,900 -600 Descending FlightAware ADS-B
Fri 03:09:52 AM 48.4040 12.0240 266° West 235 270 4,700 -900 Descending FlightAware ADS-B
Fri 03:10:17 AM 48.4020 11.9830 266° West 224 258 4,300 -1,029 Descending FlightAware ADS-B
Fri 03:11:02 AM 48.3950 11.9160 261° West 205 236 3,500 -1,091 Descending FlightAware ADS-B
Fri 03:11:12 AM 48.3940 11.9020 264° West 201 231 3,300 -1,200 Descending FlightAware ADS-B
Fri 03:11:52 AM 48.3900 11.8490 264° West 169 194 2,500 -1,029 Descending FlightAware ADS-B
Fri 03:12:22 AM 48.3880 11.8180 264° West 149 171 2,100 -800 Descending FlightAware ADS-B
Fri 03:12:37 AM 48.3860 11.8030 259° West 145 167 1,900 -764 Descending FlightAware ADS-B
Fri 03:13:17 AM 48.3830 11.7630 264° West 147 169 1,400 -750 Descending FlightAware ADS-B

Login

Don't have an account? Register now (free) for customized features, flight alerts, and more!